createdAt,value
2022-08-24T00:01:59.052Z,14.50
2022-08-24T00:04:28.320Z,14.50
2022-08-24T00:07:00.353Z,14.50
2022-08-24T00:09:28.723Z,14.60
2022-08-24T00:11:58.483Z,14.40
2022-08-24T00:14:26.941Z,14.10
2022-08-24T00:16:55.314Z,14.30
2022-08-24T00:19:23.658Z,14.10
2022-08-24T00:21:52.127Z,13.90
2022-08-24T00:24:20.485Z,13.70
2022-08-24T00:26:49.051Z,13.50
2022-08-24T00:29:20.021Z,13.40
2022-08-24T00:31:48.298Z,13.50
2022-08-24T00:34:17.852Z,13.30
2022-08-24T00:36:46.822Z,13.20
2022-08-24T00:39:15.429Z,13.10
2022-08-24T00:41:45.782Z,13.10
2022-08-24T00:44:15.416Z,13.00
2022-08-24T00:46:49.198Z,13.00
2022-08-24T00:49:28.762Z,13.00
2022-08-24T00:52:04.653Z,13.00
2022-08-24T00:54:37.441Z,13.00
2022-08-24T00:57:08.012Z,12.90
2022-08-24T00:59:40.774Z,12.80
2022-08-24T01:02:18.865Z,12.80
2022-08-24T01:04:52.756Z,12.90
2022-08-24T01:07:23.050Z,12.80
2022-08-24T01:09:52.356Z,12.80
2022-08-24T01:12:21.012Z,12.80
2022-08-24T01:14:49.392Z,12.80
2022-08-24T01:17:39.099Z,12.80
2022-08-24T01:20:11.277Z,12.50
2022-08-24T01:23:03.183Z,12.00
2022-08-24T01:25:35.629Z,11.90
2022-08-24T01:28:09.229Z,11.90
2022-08-24T01:30:37.411Z,12.00
2022-08-24T01:33:09.693Z,12.00
2022-08-24T01:35:40.589Z,11.80
2022-08-24T01:38:12.320Z,11.70
2022-08-24T01:40:47.585Z,11.80
2022-08-24T01:43:16.194Z,11.80
2022-08-24T01:45:45.415Z,11.90
2022-08-24T01:48:13.858Z,11.90
2022-08-24T01:50:42.216Z,11.90
2022-08-24T01:53:11.624Z,11.80
2022-08-24T01:55:40.938Z,11.60
2022-08-24T01:58:11.096Z,11.60
2022-08-24T02:00:41.849Z,11.60
2022-08-24T02:03:10.193Z,11.60
2022-08-24T02:05:38.629Z,11.50
2022-08-24T02:08:06.896Z,11.50
2022-08-24T02:10:35.210Z,11.40
2022-08-24T02:13:05.963Z,11.20
2022-08-24T02:15:40.315Z,11.20
2022-08-24T02:18:14.924Z,11.40
2022-08-24T02:20:44.973Z,11.40
2022-08-24T02:23:13.543Z,11.50
2022-08-24T02:25:42.977Z,11.70
2022-08-24T02:28:11.680Z,11.70
2022-08-24T02:30:41.367Z,11.70
2022-08-24T02:33:09.801Z,11.80
2022-08-24T02:35:38.072Z,11.80
2022-08-24T02:38:06.426Z,11.70
2022-08-24T02:40:34.922Z,11.50
2022-08-24T02:43:03.637Z,11.50
2022-08-24T02:45:32.658Z,11.50
2022-08-24T02:48:02.476Z,11.40
2022-08-24T02:50:31.148Z,11.40
2022-08-24T02:52:59.486Z,11.30
2022-08-24T02:55:28.057Z,11.30
2022-08-24T02:57:56.220Z,11.50
2022-08-24T03:00:24.892Z,11.60
2022-08-24T03:02:54.304Z,11.60
2022-08-24T03:05:25.950Z,11.50
2022-08-24T03:07:54.652Z,11.50
2022-08-24T03:10:23.272Z,11.50
2022-08-24T03:12:51.912Z,11.40
2022-08-24T03:15:22.764Z,11.30
2022-08-24T03:17:51.282Z,11.20
2022-08-24T03:20:22.594Z,11.10
2022-08-24T03:22:52.983Z,11.20
2022-08-24T03:25:24.594Z,11.20
2022-08-24T03:27:53.385Z,11.20
2022-08-24T03:30:22.865Z,11.20
2022-08-24T03:32:51.594Z,11.20
2022-08-24T03:35:21.954Z,11.20
2022-08-24T03:37:51.545Z,11.20
2022-08-24T03:40:24.402Z,11.30
2022-08-24T03:42:56.544Z,11.00
2022-08-24T03:45:25.106Z,10.80
2022-08-24T03:47:53.827Z,10.60
2022-08-24T03:50:23.109Z,10.40
2022-08-24T03:52:52.231Z,10.10
2022-08-24T03:55:21.733Z,10.30
2022-08-24T03:57:50.295Z,10.20
2022-08-24T04:00:18.856Z,10.20
2022-08-24T04:02:56.548Z,10.20
2022-08-24T04:05:26.634Z,10.40
2022-08-24T04:07:54.880Z,10.30
2022-08-24T04:10:24.496Z,10.20
2022-08-24T04:12:54.923Z,10.10
2022-08-24T04:15:24.488Z,10.10
2022-08-24T04:17:52.977Z,10.00
2022-08-24T04:20:21.243Z,10.20
2022-08-24T04:22:53.513Z,10.00
2022-08-24T04:25:25.285Z,9.70
2022-08-24T04:27:53.697Z,9.90
2022-08-24T04:30:24.697Z,9.90
2022-08-24T04:33:09.883Z,10.00
2022-08-24T04:35:41.753Z,9.80
2022-08-24T04:38:10.969Z,9.80
2022-08-24T04:40:46.929Z,10.30
2022-08-24T04:43:19.885Z,10.30
2022-08-24T04:45:50.594Z,9.90
2022-08-24T04:48:19.251Z,10.20
2022-08-24T04:50:47.729Z,10.50
2022-08-24T04:53:16.434Z,10.70
2022-08-24T04:55:51.170Z,10.80
2022-08-24T04:58:20.495Z,10.70
2022-08-24T05:00:48.854Z,10.60
2022-08-24T05:03:17.186Z,10.50
2022-08-24T05:05:49.538Z,10.50
2022-08-24T05:08:19.671Z,10.40
2022-08-24T05:10:51.844Z,10.50
2022-08-24T05:13:21.329Z,11.00
2022-08-24T05:15:50.585Z,11.20
2022-08-24T05:18:19.227Z,11.40
2022-08-24T05:20:48.891Z,11.30
2022-08-24T05:23:19.780Z,11.40
2022-08-24T05:25:48.154Z,11.40
2022-08-24T05:28:17.674Z,11.60
2022-08-24T05:30:45.892Z,11.80
2022-08-24T05:33:14.506Z,12.10
2022-08-24T05:35:43.915Z,12.50
2022-08-24T05:38:13.496Z,12.40
2022-08-24T05:40:42.160Z,12.50
2022-08-24T05:43:10.506Z,12.50
2022-08-24T05:45:42.809Z,12.50
2022-08-24T05:48:11.916Z,12.80
2022-08-24T05:50:59.345Z,13.10
2022-08-24T05:53:32.209Z,13.10
2022-08-24T05:56:04.394Z,13.40
2022-08-24T05:58:32.698Z,13.50
2022-08-24T06:01:08.974Z,13.50
2022-08-24T06:03:37.236Z,13.60
2022-08-24T06:06:08.618Z,13.60
2022-08-24T06:08:41.444Z,13.80
2022-08-24T06:11:11.293Z,14.20
2022-08-24T06:13:39.595Z,14.50
2022-08-24T06:16:25.645Z,14.50
2022-08-24T06:18:55.481Z,14.60
2022-08-24T06:21:28.124Z,14.60
2022-08-24T06:23:59.158Z,14.90
2022-08-24T06:26:49.099Z,15.00
2022-08-24T06:29:19.191Z,14.90
2022-08-24T06:31:54.873Z,15.00
2022-08-24T06:34:26.704Z,15.20
2022-08-24T06:36:55.105Z,15.30
2022-08-24T06:39:25.715Z,15.70
2022-08-24T06:41:55.851Z,15.70
2022-08-24T06:44:31.907Z,15.80
2022-08-24T06:47:19.227Z,16.00
2022-08-24T06:49:50.000Z,16.10
2022-08-24T06:52:18.147Z,16.10
2022-08-24T06:54:46.418Z,16.30
2022-08-24T06:57:14.776Z,16.40
2022-08-24T06:59:44.175Z,16.50
2022-08-24T07:02:15.780Z,16.60
2022-08-24T07:04:46.341Z,16.70
2022-08-24T07:07:33.052Z,16.70
2022-08-24T07:10:02.152Z,16.70
2022-08-24T07:12:30.489Z,16.80
2022-08-24T07:14:59.163Z,17.00
2022-08-24T07:17:28.064Z,17.00
2022-08-24T07:19:57.880Z,17.20
2022-08-24T07:22:52.261Z,17.30
2022-08-24T07:25:20.644Z,17.40
2022-08-24T07:27:49.303Z,17.40
2022-08-24T07:30:27.996Z,17.50
2022-08-24T07:32:59.151Z,17.70
2022-08-24T07:35:32.374Z,17.70
2022-08-24T07:38:01.841Z,17.70
2022-08-24T07:40:36.409Z,17.90
2022-08-24T07:43:17.658Z,17.90
2022-08-24T07:45:45.976Z,18.00
2022-08-24T07:48:14.420Z,18.20
2022-08-24T07:50:48.148Z,18.30
2022-08-24T07:53:20.749Z,18.30
2022-08-24T07:55:54.725Z,18.40
2022-08-24T07:58:24.554Z,18.50
2022-08-24T08:00:52.881Z,18.70
2022-08-24T08:03:23.401Z,18.80
2022-08-24T08:05:58.050Z,18.80
2022-08-24T08:08:27.348Z,18.90
2022-08-24T08:10:57.926Z,19.00
2022-08-24T08:13:26.168Z,19.30
2022-08-24T08:15:56.775Z,19.20
2022-08-24T08:18:28.038Z,19.40
2022-08-24T08:20:59.769Z,19.40
2022-08-24T08:23:45.623Z,19.40
2022-08-24T08:26:23.254Z,19.70
2022-08-24T08:29:13.309Z,19.60
2022-08-24T08:31:43.392Z,19.70
2022-08-24T08:34:13.049Z,19.90
2022-08-24T08:36:43.060Z,20.00
2022-08-24T08:39:15.704Z,19.90
2022-08-24T08:41:59.355Z,20.00
2022-08-24T08:44:42.516Z,20.20
2022-08-24T08:47:23.897Z,20.20
2022-08-24T08:50:09.576Z,20.20
2022-08-24T08:53:18.573Z,20.40
2022-08-24T08:55:58.395Z,20.40
2022-08-24T08:58:57.272Z,20.80
2022-08-24T09:01:46.647Z,20.90
2022-08-24T09:04:52.691Z,20.80
2022-08-24T09:07:32.277Z,20.80
2022-08-24T09:10:27.009Z,21.00
2022-08-24T09:13:16.365Z,21.00
2022-08-24T09:16:24.829Z,21.40
2022-08-24T09:19:06.530Z,21.00
2022-08-24T09:22:00.918Z,21.10
2022-08-24T09:25:02.869Z,21.40
2022-08-24T09:28:18.441Z,21.40
2022-08-24T09:31:21.215Z,21.90
2022-08-24T09:34:03.212Z,21.80
2022-08-24T09:36:47.604Z,21.80
2022-08-24T09:39:43.438Z,22.00
2022-08-24T09:42:47.150Z,22.40
2022-08-24T09:45:44.484Z,22.30
2022-08-24T09:48:48.437Z,22.50
2022-08-24T09:51:52.173Z,22.80
2022-08-24T09:54:55.413Z,23.00
2022-08-24T09:57:59.575Z,22.90
2022-08-24T10:00:30.014Z,22.80
2022-08-24T10:03:15.231Z,22.20
2022-08-24T10:06:14.764Z,22.30
2022-08-24T10:08:55.896Z,23.00
2022-08-24T10:11:37.257Z,23.20
2022-08-24T10:14:14.507Z,23.90
2022-08-24T10:16:53.977Z,23.60
2022-08-24T10:19:58.097Z,23.90
2022-08-24T10:57:09.210Z,24.70
2022-08-24T10:59:50.560Z,25.00
2022-08-24T11:02:31.993Z,25.20
2022-08-24T11:05:01.875Z,25.20
2022-08-24T11:07:30.485Z,25.10
2022-08-24T11:10:01.682Z,25.50
2022-08-24T11:12:32.045Z,25.20
2022-08-24T11:15:04.986Z,25.50
2022-08-24T11:17:34.843Z,25.70
2022-08-24T11:20:03.785Z,25.70
2022-08-24T11:22:40.730Z,26.00
2022-08-24T11:25:16.263Z,25.70
2022-08-24T11:27:48.319Z,25.90
2022-08-24T11:30:28.408Z,25.50
2022-08-24T11:32:58.791Z,25.80
2022-08-24T11:35:29.572Z,26.40
2022-08-24T11:38:07.479Z,26.40
2022-08-24T11:40:39.937Z,26.30
2022-08-24T11:43:19.559Z,26.40
2022-08-24T11:46:04.201Z,26.60
2022-08-24T11:48:43.758Z,26.80
2022-08-24T11:51:21.603Z,26.20
2022-08-24T11:54:00.924Z,25.90
2022-08-24T11:56:37.622Z,26.90
2022-08-24T11:59:13.810Z,27.10
2022-08-24T12:01:51.177Z,26.50
2022-08-24T12:04:43.447Z,27.10
2022-08-24T12:07:19.822Z,27.00
2022-08-24T12:10:02.422Z,26.80
2022-08-24T12:12:40.887Z,26.60
2022-08-24T12:15:14.285Z,26.50
2022-08-24T12:17:52.339Z,27.10
2022-08-24T12:20:29.137Z,27.10
2022-08-24T12:23:01.701Z,27.50
2022-08-24T12:25:51.173Z,28.30
2022-08-24T12:28:26.801Z,27.70
2022-08-24T12:30:58.267Z,27.50
2022-08-24T12:33:33.176Z,28.30
2022-08-24T12:36:22.550Z,28.00
2022-08-24T12:38:58.315Z,28.90
2022-08-24T12:41:32.148Z,27.50
2022-08-24T12:44:09.148Z,27.60
2022-08-24T12:46:38.386Z,27.80
2022-08-24T12:49:15.779Z,29.00
2022-08-24T12:52:04.076Z,27.70
2022-08-24T12:54:53.445Z,28.20
2022-08-24T12:57:51.823Z,28.60
2022-08-24T13:00:27.000Z,28.60
2022-08-24T13:03:01.855Z,29.40
2022-08-24T13:05:43.088Z,29.30
2022-08-24T13:08:15.563Z,29.50
2022-08-24T13:10:52.578Z,29.10
2022-08-24T13:13:41.842Z,29.70
2022-08-24T13:16:10.278Z,29.70
2022-08-24T13:18:50.901Z,30.90
2022-08-24T13:21:43.420Z,29.90
2022-08-24T13:24:53.560Z,29.50
2022-08-24T13:28:12.621Z,29.10
2022-08-24T13:31:11.110Z,29.00
2022-08-24T13:33:43.769Z,28.10
2022-08-24T13:36:39.578Z,27.90
2022-08-24T13:39:16.067Z,28.40
2022-08-24T13:41:50.832Z,29.10
2022-08-24T13:44:28.925Z,28.30
2022-08-24T13:47:09.229Z,28.90
2022-08-24T13:49:51.849Z,29.10
2022-08-24T13:52:30.864Z,29.50
2022-08-24T13:55:14.689Z,30.30
2022-08-24T13:57:45.783Z,30.30
2022-08-24T14:00:43.926Z,30.70
2022-08-24T14:03:53.831Z,28.40
2022-08-24T14:06:32.618Z,28.60
2022-08-24T14:09:21.481Z,29.50
2022-08-24T14:15:04.719Z,30.10
2022-08-24T14:17:55.357Z,29.80
2022-08-24T14:21:03.151Z,29.50
2022-08-24T14:23:59.146Z,29.50
2022-08-24T14:27:23.691Z,30.50
2022-08-24T14:29:52.271Z,30.40
2022-08-24T14:32:32.099Z,31.70
2022-08-24T14:35:42.877Z,30.90
2022-08-24T14:38:32.934Z,30.20
2022-08-24T14:41:22.586Z,29.90
2022-08-24T14:44:34.795Z,30.30
2022-08-24T14:47:08.815Z,31.10
2022-08-24T14:49:44.583Z,30.60
2022-08-24T14:52:24.580Z,31.10
2022-08-24T14:55:05.586Z,30.40
2022-08-24T14:57:48.416Z,29.30
2022-08-24T15:00:21.462Z,29.80
2022-08-24T15:03:16.622Z,30.40
2022-08-24T15:06:15.935Z,30.80
2022-08-24T15:08:43.841Z,30.10
2022-08-24T15:11:15.240Z,31.80
2022-08-24T15:13:48.429Z,31.20
2022-08-24T15:16:23.360Z,31.90
2022-08-24T15:19:04.730Z,30.90
2022-08-24T15:21:45.688Z,32.20
2022-08-24T15:27:15.315Z,31.70
2022-08-24T15:29:53.763Z,30.70
2022-08-24T15:32:28.033Z,30.90
2022-08-24T15:34:58.975Z,30.60
2022-08-24T15:37:30.715Z,31.30
2022-08-24T15:39:59.910Z,31.70
2022-08-24T15:42:30.654Z,32.20
2022-08-24T15:45:02.549Z,31.80
2022-08-24T15:47:34.579Z,31.60
2022-08-24T15:50:06.505Z,31.10
2022-08-24T15:52:41.911Z,31.60
2022-08-24T15:55:27.092Z,31.80
2022-08-24T15:57:56.232Z,32.30
2022-08-24T16:00:52.960Z,31.70
2022-08-24T16:03:24.467Z,31.10
2022-08-24T16:05:54.782Z,32.10
2022-08-24T16:08:24.204Z,31.90
2022-08-24T16:10:54.783Z,31.30
2022-08-24T16:13:29.337Z,30.00
2022-08-24T16:16:04.397Z,29.60
2022-08-24T16:18:53.448Z,31.10
2022-08-24T16:21:29.564Z,30.60
2022-08-24T16:24:05.550Z,30.00
2022-08-24T16:26:52.278Z,30.40
2022-08-24T16:29:50.355Z,31.10
2022-08-24T16:32:33.017Z,30.30
2022-08-24T16:35:21.793Z,30.90
2022-08-24T16:37:51.209Z,31.20
2022-08-24T16:40:19.672Z,31.00
2022-08-24T16:42:48.348Z,31.40
2022-08-24T16:45:20.194Z,30.70
2022-08-24T16:47:48.742Z,31.10
2022-08-24T16:50:20.772Z,29.90
2022-08-24T16:52:50.347Z,28.80
2022-08-24T16:55:18.612Z,29.50
2022-08-24T16:57:48.213Z,29.70
2022-08-24T17:00:19.252Z,30.40
2022-08-24T17:02:48.306Z,31.20
2022-08-24T17:05:17.799Z,31.00
2022-08-24T17:07:47.965Z,30.60
2022-08-24T17:10:18.226Z,30.20
2022-08-24T17:12:46.860Z,30.60
2022-08-24T17:15:16.210Z,30.30
2022-08-24T17:17:48.735Z,30.60
2022-08-24T17:20:17.371Z,29.70
2022-08-24T17:22:46.897Z,29.10
2022-08-24T17:25:15.098Z,29.40
2022-08-24T17:27:45.321Z,29.60
2022-08-24T17:30:16.785Z,29.60
2022-08-24T17:32:45.385Z,29.70
2022-08-24T17:35:13.525Z,28.90
2022-08-24T17:37:42.764Z,29.00
2022-08-24T17:40:15.145Z,29.00
2022-08-24T17:42:51.632Z,29.60
2022-08-24T17:45:22.713Z,28.90
2022-08-24T17:47:52.488Z,28.60
2022-08-24T17:50:21.745Z,28.30
2022-08-24T17:52:50.359Z,28.10
2022-08-24T17:55:25.918Z,27.90
2022-08-24T17:57:54.192Z,27.60
2022-08-24T18:00:22.432Z,27.30
2022-08-24T18:02:50.604Z,26.80
2022-08-24T18:05:18.845Z,26.40
2022-08-24T18:07:54.653Z,26.20
2022-08-24T18:10:27.870Z,25.80
2022-08-24T18:12:56.283Z,25.30
2022-08-24T18:15:34.733Z,25.30
2022-08-24T18:18:08.745Z,24.50
2022-08-24T18:20:40.118Z,24.60
2022-08-24T18:23:11.256Z,24.50
2022-08-24T18:25:47.031Z,24.40
2022-08-24T18:28:16.257Z,24.10
2022-08-24T18:30:44.678Z,24.00
2022-08-24T18:33:13.023Z,23.70
2022-08-24T18:35:41.187Z,23.50
2022-08-24T18:38:09.344Z,23.10
2022-08-24T18:40:37.876Z,23.20
2022-08-24T18:43:08.156Z,22.90
2022-08-24T18:45:36.857Z,22.90
2022-08-24T18:48:06.047Z,23.00
2022-08-24T18:50:37.720Z,22.90
2022-08-24T18:53:08.727Z,22.70
2022-08-24T18:55:38.661Z,22.30
2022-08-24T18:58:08.175Z,22.70
2022-08-24T19:00:36.790Z,22.70
2022-08-24T19:03:08.161Z,22.80
2022-08-24T19:05:36.528Z,22.70
2022-08-24T19:08:06.461Z,22.40
2022-08-24T19:10:36.999Z,22.40
2022-08-24T19:13:10.390Z,22.40
2022-08-24T19:15:40.235Z,22.20
2022-08-24T19:18:10.856Z,22.50
2022-08-24T19:20:44.665Z,22.30
2022-08-24T19:23:20.274Z,22.20
2022-08-24T19:25:49.028Z,22.70
2022-08-24T19:28:19.716Z,22.60
2022-08-24T19:30:48.982Z,22.50
2022-08-24T19:33:24.212Z,22.30
2022-08-24T19:35:53.340Z,22.10
2022-08-24T19:38:25.662Z,22.00
2022-08-24T19:40:57.132Z,21.50
2022-08-24T19:43:28.158Z,22.20
2022-08-24T19:46:04.005Z,22.00
2022-08-24T19:48:33.312Z,21.80
2022-08-24T19:51:03.893Z,21.60
2022-08-24T19:53:35.371Z,21.40
2022-08-24T19:56:04.014Z,21.00
2022-08-24T19:58:44.179Z,20.60
2022-08-24T20:01:14.969Z,20.50
2022-08-24T20:03:43.220Z,20.80
2022-08-24T20:06:11.847Z,20.70
2022-08-24T20:08:40.809Z,20.40
2022-08-24T20:11:09.834Z,20.30
2022-08-24T20:13:39.757Z,20.00
2022-08-24T20:16:10.803Z,20.00
2022-08-24T20:18:40.087Z,19.90
2022-08-24T20:21:09.080Z,20.10
2022-08-24T20:23:37.339Z,20.40
2022-08-24T20:26:08.050Z,20.20
2022-08-24T20:28:42.086Z,20.30
2022-08-24T20:31:11.000Z,19.70
2022-08-24T20:33:39.507Z,19.80
2022-08-24T20:36:09.284Z,19.70
2022-08-24T20:38:37.602Z,19.60
2022-08-24T20:41:05.986Z,19.70
2022-08-24T20:43:34.301Z,19.40
2022-08-24T20:46:04.667Z,19.50
2022-08-24T20:48:35.492Z,19.50
2022-08-24T20:51:05.982Z,19.80
2022-08-24T20:53:34.146Z,20.00
2022-08-24T20:56:09.104Z,19.50
2022-08-24T20:58:38.429Z,19.30
2022-08-24T21:01:08.656Z,18.80
2022-08-24T21:03:37.003Z,18.70
2022-08-24T21:06:07.337Z,18.90
2022-08-24T21:08:36.051Z,19.00
2022-08-24T21:11:06.076Z,19.20
2022-08-24T21:13:34.282Z,19.00
2022-08-24T21:16:03.407Z,18.80
2022-08-24T21:18:33.069Z,18.60
2022-08-24T21:21:03.782Z,18.90
2022-08-24T21:23:34.278Z,18.80
2022-08-24T21:26:04.118Z,18.50
2022-08-24T21:28:32.870Z,18.80
2022-08-24T21:31:05.845Z,18.60
2022-08-24T21:33:53.533Z,18.60
2022-08-24T21:36:23.390Z,18.60
2022-08-24T21:38:52.394Z,19.10
2022-08-24T21:41:21.902Z,18.90
2022-08-24T21:43:50.087Z,18.40
2022-08-24T21:46:18.406Z,18.60
2022-08-24T21:48:48.220Z,18.30
2022-08-24T21:51:16.366Z,18.50
2022-08-24T21:53:44.513Z,18.40
2022-08-24T21:56:12.660Z,18.20
2022-08-24T21:58:40.781Z,18.20
2022-08-24T22:01:09.007Z,17.90
2022-08-24T22:03:40.273Z,18.00
2022-08-24T22:06:11.902Z,18.50
2022-08-24T22:08:42.776Z,18.30
2022-08-24T22:11:12.941Z,18.30
2022-08-24T22:13:41.744Z,17.90
2022-08-24T22:16:11.160Z,17.80
2022-08-24T22:18:39.434Z,17.70
2022-08-24T22:21:11.517Z,17.60
2022-08-24T22:23:40.886Z,17.40
2022-08-24T22:26:10.353Z,17.30
2022-08-24T22:28:40.397Z,17.50
2022-08-24T22:31:17.303Z,17.40
2022-08-24T22:33:45.931Z,17.60
2022-08-24T22:36:17.428Z,17.50
2022-08-24T22:38:45.835Z,17.40
2022-08-24T22:41:14.370Z,17.40
2022-08-24T22:43:56.777Z,17.40
2022-08-24T22:46:26.129Z,17.40
2022-08-24T22:48:55.154Z,17.60
2022-08-24T22:51:24.976Z,18.10
2022-08-24T22:53:53.638Z,18.00
2022-08-24T22:56:24.426Z,17.80
2022-08-24T22:58:53.058Z,17.50
2022-08-24T23:01:23.722Z,17.40
2022-08-24T23:03:53.276Z,17.10
2022-08-24T23:06:21.776Z,17.00
2022-08-24T23:08:51.698Z,16.90
2022-08-24T23:11:23.145Z,16.70
2022-08-24T23:13:51.536Z,16.70
2022-08-24T23:16:19.741Z,16.60
2022-08-24T23:19:05.406Z,16.50
2022-08-24T23:21:34.359Z,16.50
2022-08-24T23:24:04.595Z,16.30
2022-08-24T23:26:33.359Z,16.00
2022-08-24T23:29:03.565Z,16.00
2022-08-24T23:31:32.727Z,15.80
2022-08-24T23:34:01.078Z,15.50
2022-08-24T23:36:29.359Z,15.30
2022-08-24T23:38:59.569Z,15.40
2022-08-24T23:41:31.813Z,15.30
2022-08-24T23:44:02.259Z,15.30
2022-08-24T23:46:30.735Z,15.30
2022-08-24T23:49:03.304Z,15.30
2022-08-24T23:51:32.239Z,15.30
2022-08-24T23:54:00.924Z,15.30
2022-08-24T23:56:34.004Z,15.30
2022-08-24T23:59:05.073Z,15.20
